createdAt,value
2017-06-24T04:00:47.366Z,15
2017-06-24T04:01:12.847Z,15
2017-06-24T04:01:38.327Z,15
2017-06-24T04:02:03.826Z,15
2017-06-24T04:02:29.307Z,15
2017-06-24T04:02:54.786Z,15
2017-06-24T04:03:20.259Z,15
2017-06-24T04:03:45.712Z,15
2017-06-24T04:04:11.205Z,15
2017-06-24T04:04:36.675Z,15
2017-06-24T04:05:02.142Z,15
2017-06-24T04:05:27.636Z,15
2017-06-24T04:05:53.103Z,15
2017-06-24T04:06:18.594Z,15
2017-06-24T04:06:44.084Z,15
2017-06-24T04:07:09.583Z,15
2017-06-24T04:07:35.046Z,15
2017-06-24T04:08:00.534Z,15
2017-06-24T04:08:25.988Z,15
2017-06-24T04:08:51.471Z,15
2017-06-24T04:09:16.946Z,15
2017-06-24T04:09:42.419Z,15
2017-06-24T04:10:07.911Z,15
2017-06-24T04:10:33.391Z,20
2017-06-24T04:10:58.863Z,20
2017-06-24T04:11:24.339Z,20
2017-06-24T04:11:49.805Z,20
2017-06-24T04:12:15.283Z,20
2017-06-24T04:12:40.730Z,20
2017-06-24T04:13:06.210Z,20
2017-06-24T04:13:31.686Z,20
2017-06-24T04:13:57.159Z,20
2017-06-24T04:14:22.621Z,20
2017-06-24T04:14:48.083Z,20
2017-06-24T04:15:13.562Z,20
2017-06-24T04:15:39.050Z,20
2017-06-24T04:16:04.498Z,20
2017-06-24T04:16:29.953Z,20
2017-06-24T04:16:55.395Z,20
2017-06-24T04:17:20.870Z,20
2017-06-24T04:17:46.348Z,20
2017-06-24T04:18:11.819Z,20
2017-06-24T04:18:37.309Z,25
2017-06-24T04:19:02.786Z,25
2017-06-24T04:19:28.303Z,25
2017-06-24T04:19:53.747Z,25
2017-06-24T04:20:19.241Z,30
2017-06-24T04:20:44.729Z,30
2017-06-24T04:21:10.203Z,30
2017-06-24T04:21:35.706Z,30
2017-06-24T04:22:01.184Z,30
2017-06-24T04:22:26.668Z,30
2017-06-24T04:22:52.117Z,30
2017-06-24T04:23:17.572Z,30
2017-06-24T04:23:43.048Z,30
2017-06-24T04:24:08.547Z,30
2017-06-24T04:24:34.020Z,35
2017-06-24T04:24:59.563Z,35
2017-06-24T04:25:25.020Z,35
2017-06-24T04:25:50.514Z,40
2017-06-24T04:26:15.988Z,40
2017-06-24T04:26:41.475Z,40
2017-06-24T04:27:06.939Z,40
2017-06-24T04:27:32.417Z,40
2017-06-24T04:27:57.903Z,40
2017-06-24T04:28:23.366Z,35
2017-06-24T04:28:48.850Z,35
2017-06-24T04:29:14.345Z,35
2017-06-24T04:29:39.864Z,35
2017-06-24T04:30:05.347Z,40
2017-06-24T04:30:30.828Z,40
2017-06-24T04:30:56.315Z,35
2017-06-24T04:31:21.814Z,35
2017-06-24T04:31:47.282Z,30
2017-06-24T04:32:12.735Z,35
2017-06-24T04:32:38.219Z,35
2017-06-24T04:33:03.703Z,40
2017-06-24T04:33:29.202Z,40
2017-06-24T04:33:54.689Z,40
2017-06-24T04:34:20.166Z,45
2017-06-24T04:34:45.667Z,45
2017-06-24T04:35:11.149Z,45
2017-06-24T04:35:36.617Z,45
2017-06-24T04:36:02.090Z,45
2017-06-24T04:36:27.557Z,45
2017-06-24T04:36:53.049Z,40
2017-06-24T04:37:18.549Z,40
2017-06-24T04:37:44.014Z,40
2017-06-24T04:38:09.491Z,40
2017-06-24T04:38:34.984Z,40
2017-06-24T04:39:00.461Z,35
2017-06-24T04:39:25.938Z,35
2017-06-24T04:39:51.436Z,40
2017-06-24T04:40:16.959Z,35
2017-06-24T04:40:42.483Z,35
2017-06-24T04:41:07.972Z,40
2017-06-24T04:41:33.429Z,35
2017-06-24T04:41:58.925Z,35
2017-06-24T04:42:24.395Z,35
2017-06-24T04:42:49.876Z,40
2017-06-24T04:43:15.348Z,40
2017-06-24T04:43:40.875Z,35
2017-06-24T04:44:06.354Z,35
2017-06-24T04:44:31.811Z,35
2017-06-24T04:44:57.304Z,35
2017-06-24T04:45:22.848Z,35
2017-06-24T04:45:48.334Z,40
2017-06-24T04:46:13.842Z,40
2017-06-24T04:46:39.295Z,40
2017-06-24T04:47:04.772Z,45
2017-06-24T04:47:30.227Z,45
2017-06-24T04:47:55.705Z,45
2017-06-24T04:48:21.182Z,45
2017-06-24T04:48:46.690Z,45
2017-06-24T04:49:12.148Z,50
2017-06-24T04:49:37.616Z,50
2017-06-24T04:50:03.076Z,50
2017-06-24T04:50:28.576Z,55
2017-06-24T04:50:54.057Z,55
2017-06-24T04:51:19.530Z,65
2017-06-24T04:51:44.988Z,65
2017-06-24T04:52:10.482Z,65
2017-06-24T04:52:35.955Z,65
2017-06-24T04:53:01.441Z,65
2017-06-24T04:53:26.950Z,60
2017-06-24T04:53:52.422Z,60
2017-06-24T04:54:17.950Z,75
2017-06-24T04:54:43.419Z,85
2017-06-24T04:55:08.910Z,85
2017-06-24T04:55:34.390Z,85
2017-06-24T04:55:59.869Z,85
2017-06-24T04:56:25.328Z,80
2017-06-24T04:56:50.792Z,80
2017-06-24T04:57:16.262Z,90
2017-06-24T04:57:41.742Z,95
2017-06-24T04:59:05.240Z,70
2017-06-24T04:59:30.709Z,65
2017-06-24T04:59:56.200Z,60
2017-06-24T05:00:21.689Z,60
2017-06-24T05:00:47.149Z,60
2017-06-24T05:01:12.645Z,60
2017-06-24T05:01:38.123Z,65
2017-06-24T05:02:03.576Z,75
2017-06-24T05:02:29.064Z,70
2017-06-24T05:02:54.532Z,55
2017-06-24T05:03:20.022Z,50
2017-06-24T05:03:45.489Z,50
2017-06-24T05:04:10.955Z,50
2017-06-24T05:04:36.404Z,50
2017-06-24T05:05:01.908Z,50
2017-06-24T05:05:27.379Z,55
2017-06-24T05:05:52.837Z,50
2017-06-24T05:06:18.292Z,55
2017-06-24T05:06:43.765Z,50
2017-06-24T05:07:09.248Z,50
2017-06-24T05:07:34.728Z,55
2017-06-24T05:08:00.222Z,55
2017-06-24T05:08:25.713Z,55
2017-06-24T05:08:51.183Z,55
2017-06-24T05:09:16.660Z,50
2017-06-24T05:09:42.166Z,45
2017-06-24T05:10:07.616Z,45
2017-06-24T05:10:33.093Z,45
2017-06-24T05:10:58.575Z,40
2017-06-24T05:11:24.047Z,40
2017-06-24T05:11:49.523Z,40
2017-06-24T05:12:14.988Z,40
2017-06-24T05:12:40.490Z,40
2017-06-24T05:13:05.959Z,35
2017-06-24T05:13:31.440Z,35
2017-06-24T05:13:56.904Z,35
2017-06-24T05:14:22.395Z,35
2017-06-24T05:14:47.874Z,35
2017-06-24T05:15:13.348Z,35
2017-06-24T05:15:38.831Z,35
2017-06-24T05:16:04.313Z,35
2017-06-24T05:16:29.781Z,35
2017-06-24T05:16:55.250Z,35
2017-06-24T05:17:20.712Z,40
2017-06-24T05:17:46.190Z,40
2017-06-24T05:18:11.663Z,40
2017-06-24T05:18:37.121Z,40
2017-06-24T05:19:02.587Z,40
2017-06-24T05:19:28.059Z,40
2017-06-24T05:19:53.556Z,40
2017-06-24T05:20:19.009Z,40
2017-06-24T05:20:44.499Z,40
2017-06-24T05:21:10.000Z,45
2017-06-24T05:21:35.458Z,50
2017-06-24T05:22:00.936Z,50
2017-06-24T05:22:26.418Z,55
2017-06-24T05:22:51.881Z,55
2017-06-24T05:23:17.368Z,55
2017-06-24T05:23:42.823Z,50
2017-06-24T05:24:08.304Z,50
2017-06-24T05:24:33.751Z,45
2017-06-24T05:24:59.194Z,50
2017-06-24T05:25:24.693Z,55
2017-06-24T05:25:50.180Z,60
2017-06-24T05:26:15.651Z,60
2017-06-24T05:26:41.113Z,55
2017-06-24T05:27:06.632Z,55
2017-06-24T05:27:32.119Z,55
2017-06-24T05:27:57.587Z,55
2017-06-24T05:28:23.060Z,60
2017-06-24T05:28:48.532Z,60
2017-06-24T05:29:14.015Z,65
2017-06-24T05:29:39.491Z,70
2017-06-24T05:30:04.993Z,75
2017-06-24T05:30:30.478Z,85
2017-06-24T05:30:55.945Z,85
2017-06-24T05:31:21.405Z,80
2017-06-24T05:31:46.891Z,80
2017-06-24T05:32:12.345Z,80
2017-06-24T05:32:37.815Z,90
2017-06-24T05:33:03.291Z,90
2017-06-24T05:33:28.760Z,90
2017-06-24T05:33:54.245Z,85
2017-06-24T05:34:19.718Z,90
2017-06-24T05:34:45.215Z,95
2017-06-24T05:35:10.724Z,100
2017-06-24T05:35:36.172Z,95
2017-06-24T05:36:01.649Z,85
2017-06-24T05:36:27.153Z,85
2017-06-24T05:36:52.603Z,85
2017-06-24T05:37:18.076Z,90
2017-06-24T05:37:43.580Z,100
2017-06-24T05:38:09.025Z,100
2017-06-24T05:38:34.524Z,95
2017-06-24T05:38:59.996Z,95
2017-06-24T05:39:25.466Z,100
2017-06-24T05:39:50.940Z,95
2017-06-24T05:40:16.421Z,95
2017-06-24T05:40:42.655Z,95
2017-06-24T05:41:08.164Z,90
2017-06-24T05:41:33.623Z,90
2017-06-24T05:41:59.112Z,85
2017-06-24T05:42:24.544Z,80
2017-06-24T05:42:50.007Z,75
2017-06-24T05:43:15.460Z,80
2017-06-24T05:43:40.978Z,85
2017-06-24T05:44:06.439Z,85
2017-06-24T05:44:31.911Z,90
2017-06-24T05:44:57.404Z,85
2017-06-24T05:45:22.916Z,85
2017-06-24T05:45:48.410Z,85
2017-06-24T05:46:13.860Z,75
2017-06-24T05:46:39.358Z,75
2017-06-24T05:47:04.837Z,70
2017-06-24T05:47:30.329Z,65
2017-06-24T05:47:55.772Z,60
2017-06-24T05:48:21.245Z,60
2017-06-24T05:48:46.721Z,65
2017-06-24T05:49:12.212Z,70
2017-06-24T05:49:37.678Z,80
2017-06-24T05:50:03.166Z,85
2017-06-24T05:50:28.628Z,85
2017-06-24T05:50:54.121Z,80
2017-06-24T05:51:19.631Z,75
2017-06-24T05:51:45.131Z,75
2017-06-24T05:52:10.620Z,65
2017-06-24T05:52:36.057Z,60
2017-06-24T05:53:01.542Z,55
2017-06-24T05:53:27.015Z,55
2017-06-24T05:53:52.489Z,55
2017-06-24T05:54:17.959Z,60
2017-06-24T05:54:43.447Z,70
2017-06-24T05:55:08.968Z,75
2017-06-24T05:55:34.434Z,75
2017-06-24T05:55:59.918Z,80
2017-06-24T05:56:25.397Z,85
2017-06-24T05:56:50.848Z,80
2017-06-24T05:57:16.315Z,85
2017-06-24T05:57:41.803Z,90
2017-06-24T05:58:07.292Z,100
2017-06-24T05:58:32.782Z,105
2017-06-24T05:58:58.236Z,100
2017-06-24T05:59:23.725Z,90
2017-06-24T05:59:49.206Z,80
2017-06-24T06:00:14.659Z,80
2017-06-24T06:00:40.145Z,80
2017-06-24T06:01:05.630Z,85
2017-06-24T06:01:31.087Z,90
2017-06-24T06:01:56.585Z,80
2017-06-24T06:02:22.040Z,80
2017-06-24T06:02:47.537Z,90
2017-06-24T06:03:13.038Z,95
2017-06-24T06:03:38.515Z,90
2017-06-24T06:04:03.990Z,90
2017-06-24T06:04:29.473Z,85
2017-06-24T06:04:54.982Z,90
2017-06-24T06:05:20.470Z,95
2017-06-24T06:05:45.982Z,95
2017-06-24T06:06:11.475Z,90
2017-06-24T06:06:36.974Z,85
2017-06-24T06:07:02.430Z,80
2017-06-24T06:07:27.935Z,80
2017-06-24T06:07:53.426Z,90
2017-06-24T06:08:18.905Z,90
2017-06-24T06:08:44.355Z,85
2017-06-24T06:09:09.822Z,70
2017-06-24T06:09:35.322Z,70
2017-06-24T06:10:00.803Z,75
2017-06-24T06:10:26.298Z,70
2017-06-24T06:10:51.799Z,65
2017-06-24T06:11:17.272Z,65
2017-06-24T06:11:42.745Z,65
2017-06-24T06:12:08.229Z,60
2017-06-24T06:12:33.695Z,55
2017-06-24T06:12:59.176Z,60
2017-06-24T06:13:24.654Z,60
2017-06-24T06:13:50.118Z,65
2017-06-24T06:14:15.599Z,70
2017-06-24T06:14:41.083Z,65
2017-06-24T06:15:06.544Z,70
2017-06-24T06:15:32.007Z,75
2017-06-24T06:15:57.491Z,85
2017-06-24T06:16:22.944Z,90
2017-06-24T06:16:48.443Z,90
2017-06-24T06:17:13.934Z,90
2017-06-24T06:17:39.423Z,95
2017-06-24T06:18:04.901Z,95
2017-06-24T06:18:30.427Z,90
2017-06-24T06:18:55.893Z,90
2017-06-24T06:19:21.380Z,90
2017-06-24T06:19:46.867Z,85
2017-06-24T06:20:12.349Z,80
2017-06-24T06:20:37.819Z,80
2017-06-24T06:21:03.290Z,80
2017-06-24T06:21:28.816Z,85
2017-06-24T06:21:54.310Z,80
2017-06-24T06:22:19.802Z,75
2017-06-24T06:22:45.273Z,75
2017-06-24T06:23:10.763Z,80
2017-06-24T06:23:36.247Z,85
2017-06-24T06:24:01.720Z,90
2017-06-24T06:24:27.191Z,90
2017-06-24T06:24:52.685Z,95
2017-06-24T06:25:18.177Z,85
2017-06-24T06:25:43.650Z,85
2017-06-24T06:26:09.173Z,95
2017-06-24T06:26:34.617Z,100
2017-06-24T06:27:00.125Z,95
2017-06-24T06:27:25.608Z,105
2017-06-24T06:27:51.094Z,110
2017-06-24T06:28:16.567Z,105
2017-06-24T06:28:42.047Z,105
2017-06-24T06:29:07.564Z,105
2017-06-24T06:29:33.032Z,100
2017-06-24T06:29:58.536Z,95
2017-06-24T06:30:24.020Z,105
2017-06-24T06:30:49.497Z,110
2017-06-24T06:31:14.986Z,105
2017-06-24T06:31:40.462Z,100
2017-06-24T06:32:05.939Z,100
2017-06-24T06:32:31.444Z,100
2017-06-24T06:32:56.916Z,95
2017-06-24T06:33:22.381Z,85
2017-06-24T06:33:47.833Z,85
2017-06-24T06:34:13.303Z,100
2017-06-24T06:34:38.761Z,110
2017-06-24T06:35:04.277Z,110
2017-06-24T06:35:29.736Z,120
2017-06-24T06:35:55.227Z,130
2017-06-24T06:36:20.709Z,135
2017-06-24T06:36:46.168Z,145
2017-06-24T06:37:11.650Z,145
2017-06-24T06:37:37.166Z,150
2017-06-24T06:38:02.640Z,155
2017-06-24T06:38:28.112Z,160
2017-06-24T06:38:53.581Z,145
2017-06-24T06:39:19.094Z,135
2017-06-24T06:39:44.543Z,140
2017-06-24T06:40:10.017Z,145
2017-06-24T06:40:35.499Z,150
2017-06-24T06:41:00.997Z,150
2017-06-24T06:41:26.469Z,145
2017-06-24T06:41:51.967Z,150
2017-06-24T06:42:17.447Z,160
2017-06-24T06:42:42.927Z,165
2017-06-24T06:43:08.404Z,145
2017-06-24T06:43:33.855Z,135
2017-06-24T06:43:59.352Z,150
2017-06-24T06:44:24.845Z,145
2017-06-24T06:44:50.335Z,140
2017-06-24T06:45:15.837Z,135
2017-06-24T06:45:41.316Z,115
2017-06-24T06:46:06.813Z,125
2017-06-24T06:46:32.283Z,130
2017-06-24T06:46:57.742Z,125
2017-06-24T06:47:23.209Z,135
2017-06-24T06:47:48.703Z,150
2017-06-24T06:48:14.194Z,155
2017-06-24T06:48:39.668Z,160
2017-06-24T06:49:05.142Z,160
2017-06-24T06:49:30.651Z,165
2017-06-24T06:49:56.117Z,170
2017-06-24T06:50:21.583Z,170
2017-06-24T06:50:47.085Z,185
2017-06-24T06:51:12.536Z,175
2017-06-24T06:51:38.015Z,160
2017-06-24T06:52:03.484Z,180
2017-06-24T06:52:28.940Z,215
2017-06-24T06:52:54.416Z,230
2017-06-24T06:53:19.888Z,235
2017-06-24T06:53:45.381Z,235
2017-06-24T06:54:10.863Z,245
2017-06-24T06:54:36.342Z,250
2017-06-24T06:55:01.816Z,245
2017-06-24T06:55:27.287Z,245
2017-06-24T06:55:52.763Z,240
2017-06-24T06:56:18.238Z,235
2017-06-24T06:56:43.716Z,245
2017-06-24T06:57:09.201Z,315
2017-06-24T06:57:34.689Z,350
2017-06-24T06:58:00.151Z,340
2017-06-24T06:58:25.736Z,310
2017-06-24T06:58:51.307Z,265
2017-06-24T06:59:16.802Z,250
2017-06-24T06:59:42.240Z,245
2017-06-24T07:00:07.728Z,235
2017-06-24T07:00:33.222Z,240
2017-06-24T07:00:58.648Z,250
2017-06-24T07:01:24.124Z,265
2017-06-24T07:01:49.576Z,265
2017-06-24T07:02:15.023Z,265
2017-06-24T07:02:40.509Z,235
2017-06-24T07:03:05.963Z,215
2017-06-24T07:03:31.416Z,220
2017-06-24T07:03:56.912Z,230
2017-06-24T07:04:22.410Z,225
2017-06-24T07:04:47.926Z,215
2017-06-24T07:05:13.412Z,215
2017-06-24T07:05:38.891Z,205
2017-06-24T07:06:04.331Z,205
2017-06-24T07:06:29.803Z,205
2017-06-24T07:06:55.285Z,200
2017-06-24T07:07:20.732Z,195
2017-06-24T07:07:46.207Z,175
2017-06-24T07:08:11.683Z,175
2017-06-24T07:08:37.137Z,180
2017-06-24T07:09:02.643Z,195
2017-06-24T07:09:28.120Z,225
2017-06-24T07:09:53.596Z,230
2017-06-24T07:10:19.076Z,220
2017-06-24T07:10:44.560Z,205
2017-06-24T07:11:10.035Z,200
2017-06-24T07:11:35.518Z,185
2017-06-24T07:12:00.978Z,180
2017-06-24T07:12:26.457Z,175
2017-06-24T07:12:51.928Z,175
2017-06-24T07:13:17.445Z,175
2017-06-24T07:13:42.937Z,180
2017-06-24T07:14:08.408Z,180
2017-06-24T07:14:33.923Z,180
2017-06-24T07:14:59.397Z,185
2017-06-24T07:15:24.863Z,185
2017-06-24T07:15:50.345Z,205
2017-06-24T07:16:15.812Z,220
2017-06-24T07:16:41.280Z,235
2017-06-24T07:17:06.755Z,240
2017-06-24T07:17:32.250Z,240
2017-06-24T07:17:57.711Z,235
2017-06-24T07:18:23.186Z,220
2017-06-24T07:18:48.653Z,205
2017-06-24T07:19:14.111Z,200
2017-06-24T07:19:39.618Z,185
2017-06-24T07:20:05.091Z,175
2017-06-24T07:20:30.579Z,175
2017-06-24T07:20:56.040Z,195
2017-06-24T07:21:21.523Z,210
2017-06-24T07:21:46.982Z,210
2017-06-24T07:22:12.568Z,210
2017-06-24T07:22:37.956Z,190
2017-06-24T07:23:03.454Z,195
2017-06-24T07:23:28.922Z,215
2017-06-24T07:23:54.405Z,195
2017-06-24T07:24:19.879Z,185
2017-06-24T07:24:45.371Z,185
2017-06-24T07:25:10.846Z,195
2017-06-24T07:25:36.329Z,225
2017-06-24T07:26:01.775Z,275
2017-06-24T07:26:27.255Z,265
2017-06-24T07:26:52.722Z,250
2017-06-24T07:27:18.221Z,285
2017-06-24T07:27:43.693Z,260
2017-06-24T07:28:09.257Z,215
2017-06-24T07:28:34.655Z,240
2017-06-24T07:29:00.122Z,285
2017-06-24T07:29:25.590Z,275
2017-06-24T07:29:51.057Z,250
2017-06-24T07:30:16.507Z,255
2017-06-24T07:30:41.995Z,245
2017-06-24T07:31:07.462Z,265
2017-06-24T07:31:32.952Z,210
2017-06-24T07:31:58.422Z,190
2017-06-24T07:32:23.908Z,200
2017-06-24T07:32:49.394Z,195
2017-06-24T07:33:14.884Z,215
2017-06-24T07:33:40.331Z,280
2017-06-24T07:34:05.821Z,285
2017-06-24T07:34:31.490Z,285
2017-06-24T07:34:56.900Z,270
2017-06-24T07:35:22.389Z,250
2017-06-24T07:35:47.781Z,215
2017-06-24T07:36:13.251Z,190
2017-06-24T07:36:38.711Z,175
2017-06-24T07:37:04.191Z,155
2017-06-24T07:37:29.682Z,175
2017-06-24T07:37:55.215Z,190
2017-06-24T07:38:20.643Z,190
2017-06-24T07:38:46.156Z,210
2017-06-24T07:39:11.864Z,225
2017-06-24T07:39:37.470Z,245
2017-06-24T07:40:02.903Z,260
2017-06-24T07:40:28.358Z,255
2017-06-24T07:40:53.909Z,270
2017-06-24T07:41:19.366Z,275
2017-06-24T07:41:44.840Z,280
2017-06-24T07:42:10.399Z,285
2017-06-24T07:42:35.844Z,290
2017-06-24T07:43:01.342Z,290
2017-06-24T07:43:26.875Z,295
2017-06-24T07:43:52.337Z,310
2017-06-24T07:44:17.830Z,310
2017-06-24T07:44:43.305Z,315
2017-06-24T07:45:08.863Z,305
2017-06-24T07:45:34.401Z,300
2017-06-24T07:45:59.878Z,290
2017-06-24T07:46:25.380Z,285
2017-06-24T07:46:50.843Z,290
2017-06-24T07:47:16.361Z,290
2017-06-24T07:47:41.785Z,290
2017-06-24T07:48:07.260Z,295
2017-06-24T07:48:32.781Z,290
2017-06-24T07:48:58.294Z,290
2017-06-24T07:49:24.063Z,295
2017-06-24T07:49:49.472Z,305
2017-06-24T07:50:15.013Z,310
2017-06-24T07:50:40.481Z,310
2017-06-24T07:51:06.027Z,295
2017-06-24T07:51:31.629Z,285
2017-06-24T07:51:57.171Z,275
2017-06-24T07:52:22.734Z,260
2017-06-24T07:52:48.238Z,250
2017-06-24T07:53:14.000Z,255
2017-06-24T07:53:39.624Z,250
2017-06-24T07:54:05.224Z,260
2017-06-24T07:54:30.703Z,260
2017-06-24T07:54:56.253Z,270
2017-06-24T07:55:21.761Z,280
2017-06-24T07:55:47.345Z,270
2017-06-24T07:56:12.817Z,270
2017-06-24T07:56:38.280Z,280
2017-06-24T07:57:03.746Z,295
2017-06-24T07:57:29.232Z,305
2017-06-24T07:57:54.750Z,315
2017-06-24T07:58:20.230Z,315
2017-06-24T07:58:45.698Z,300
2017-06-24T07:59:11.216Z,280
2017-06-24T07:59:36.784Z,265
2017-06-24T08:00:02.270Z,265
2017-06-24T08:00:27.718Z,265
2017-06-24T08:00:53.189Z,265
2017-06-24T08:01:18.692Z,270
2017-06-24T08:01:44.179Z,270
2017-06-24T08:02:09.637Z,270
2017-06-24T08:02:35.123Z,275
2017-06-24T08:03:00.721Z,285
2017-06-24T08:03:26.290Z,295
2017-06-24T08:03:51.995Z,300
2017-06-24T08:04:17.658Z,290
2017-06-24T08:04:43.197Z,270
2017-06-24T08:05:08.668Z,250
2017-06-24T08:05:34.486Z,235
2017-06-24T08:05:59.916Z,215
2017-06-24T08:06:25.381Z,195
2017-06-24T08:06:50.850Z,185
2017-06-24T08:07:16.361Z,180
2017-06-24T08:07:41.820Z,180
2017-06-24T08:08:07.290Z,175
2017-06-24T08:08:32.790Z,180
2017-06-24T08:08:58.410Z,180
2017-06-24T08:09:23.860Z,195
2017-06-24T08:09:49.340Z,215
2017-06-24T08:10:14.828Z,245
2017-06-24T08:10:40.297Z,260
2017-06-24T08:11:05.763Z,270
2017-06-24T08:11:31.360Z,270
2017-06-24T08:11:56.872Z,265
2017-06-24T08:12:22.469Z,270
2017-06-24T08:12:47.898Z,275
2017-06-24T08:13:13.591Z,285
2017-06-24T08:13:39.071Z,300
2017-06-24T08:14:04.553Z,320
2017-06-24T08:14:30.038Z,335
2017-06-24T08:14:55.540Z,345
2017-06-24T08:15:21.021Z,350
2017-06-24T08:15:46.522Z,340
2017-06-24T08:16:12.014Z,325
2017-06-24T08:16:37.487Z,310
2017-06-24T08:17:02.961Z,305
2017-06-24T08:17:28.550Z,295
2017-06-24T08:17:54.079Z,290
2017-06-24T08:18:19.550Z,280
2017-06-24T08:18:45.041Z,275
2017-06-24T08:19:10.533Z,270
2017-06-24T08:19:36.040Z,260
2017-06-24T08:20:01.532Z,250
2017-06-24T08:20:27.036Z,240
2017-06-24T08:20:52.507Z,235
2017-06-24T08:21:18.003Z,230
2017-06-24T08:21:43.493Z,225
2017-06-24T08:22:08.986Z,220
2017-06-24T08:22:34.469Z,205
2017-06-24T08:22:59.944Z,195
2017-06-24T08:23:25.439Z,215
2017-06-24T08:23:50.921Z,230
2017-06-24T08:24:16.404Z,240
2017-06-24T08:24:41.887Z,245
2017-06-24T08:25:07.391Z,250
2017-06-24T08:25:32.890Z,255
2017-06-24T08:25:58.361Z,255
2017-06-24T08:26:23.848Z,245
2017-06-24T08:26:49.338Z,240
2017-06-24T08:27:14.808Z,235
2017-06-24T08:27:40.283Z,230
2017-06-24T08:28:05.743Z,235
2017-06-24T08:28:31.236Z,240
2017-06-24T08:28:56.681Z,245
2017-06-24T08:29:22.210Z,245
2017-06-24T08:29:47.714Z,245
2017-06-24T08:30:13.196Z,240
2017-06-24T08:30:38.690Z,230
2017-06-24T08:31:04.184Z,225
2017-06-24T08:31:29.643Z,230
2017-06-24T08:31:55.131Z,235
2017-06-24T08:32:20.609Z,235
2017-06-24T08:32:46.074Z,225
2017-06-24T08:33:11.546Z,215
2017-06-24T08:33:37.005Z,215
2017-06-24T08:34:02.513Z,220
2017-06-24T08:34:27.982Z,230
2017-06-24T08:34:53.470Z,235
2017-06-24T08:35:18.956Z,235
2017-06-24T08:35:44.438Z,240
2017-06-24T08:36:09.899Z,270
2017-06-24T08:36:35.375Z,305
2017-06-24T08:37:00.869Z,330
2017-06-24T08:37:26.351Z,340
2017-06-24T08:37:51.852Z,340
2017-06-24T08:38:17.329Z,335
2017-06-24T08:38:42.863Z,325
2017-06-24T08:39:08.343Z,320
2017-06-24T08:39:33.810Z,315
2017-06-24T08:39:59.299Z,320
2017-06-24T08:40:24.776Z,350
2017-06-24T08:40:50.233Z,380
2017-06-24T08:41:15.694Z,400
2017-06-24T08:41:41.181Z,400
2017-06-24T08:42:06.635Z,385
2017-06-24T08:42:32.110Z,365
2017-06-24T08:42:57.581Z,355
2017-06-24T08:43:23.047Z,365
2017-06-24T08:43:48.547Z,385
2017-06-24T08:44:14.066Z,410
2017-06-24T08:44:39.570Z,430
2017-06-24T08:45:05.037Z,430
2017-06-24T08:45:30.520Z,405
2017-06-24T08:45:56.013Z,380
2017-06-24T08:46:21.495Z,365
2017-06-24T08:46:46.979Z,365
2017-06-24T08:47:12.446Z,370
2017-06-24T08:47:37.949Z,370
2017-06-24T08:48:03.429Z,375
2017-06-24T08:48:28.954Z,385
2017-06-24T08:48:54.411Z,390
2017-06-24T08:49:19.899Z,375
2017-06-24T08:49:45.370Z,355
2017-06-24T08:50:10.838Z,340
2017-06-24T08:50:36.326Z,335
2017-06-24T08:51:01.836Z,330
2017-06-24T08:51:27.301Z,340
2017-06-24T08:51:52.799Z,360
2017-06-24T08:52:18.295Z,370
2017-06-24T08:52:43.808Z,370
2017-06-24T08:53:09.271Z,380
2017-06-24T08:53:34.746Z,380
2017-06-24T08:54:00.226Z,385
2017-06-24T08:54:25.724Z,385
2017-06-24T08:54:51.205Z,400
2017-06-24T08:55:16.700Z,410
2017-06-24T08:55:42.183Z,390
2017-06-24T08:56:07.658Z,375
2017-06-24T08:56:33.137Z,390
2017-06-24T08:56:58.621Z,400
2017-06-24T08:57:24.103Z,415
2017-06-24T08:57:49.604Z,410
2017-06-24T08:58:15.080Z,395
2017-06-24T08:58:40.564Z,400
2017-06-24T08:59:06.014Z,420
2017-06-24T08:59:31.488Z,400
2017-06-24T08:59:56.972Z,345
2017-06-24T09:00:22.485Z,320
2017-06-24T09:00:48.050Z,325
2017-06-24T09:01:13.700Z,320
2017-06-24T09:01:39.278Z,315
2017-06-24T09:02:04.921Z,310
2017-06-24T09:02:30.429Z,280
2017-06-24T09:02:55.992Z,275
2017-06-24T09:03:21.572Z,290
2017-06-24T09:03:47.172Z,305
2017-06-24T09:04:12.665Z,310
2017-06-24T09:04:38.182Z,300
2017-06-24T09:05:03.776Z,295
2017-06-24T09:05:29.204Z,290
2017-06-24T09:05:54.731Z,265
2017-06-24T09:06:20.361Z,260
2017-06-24T09:06:45.776Z,270
2017-06-24T09:07:11.450Z,265
2017-06-24T09:07:36.941Z,240
2017-06-24T09:08:02.462Z,230
2017-06-24T09:08:27.991Z,220
2017-06-24T09:08:53.574Z,215
2017-06-24T09:09:19.180Z,225
2017-06-24T09:09:44.683Z,210
2017-06-24T09:10:10.146Z,215
2017-06-24T09:10:35.616Z,215
2017-06-24T09:11:01.111Z,205
2017-06-24T09:11:26.591Z,215
2017-06-24T09:11:52.067Z,220
2017-06-24T09:12:17.675Z,205
2017-06-24T09:12:43.092Z,195
2017-06-24T09:13:08.565Z,200
2017-06-24T09:13:34.064Z,180
2017-06-24T09:13:59.519Z,175
2017-06-24T09:14:24.979Z,190
2017-06-24T09:14:50.468Z,210
2017-06-24T09:15:16.034Z,200
2017-06-24T09:15:41.639Z,175
2017-06-24T09:16:07.280Z,170
2017-06-24T09:16:32.871Z,175
2017-06-24T09:16:58.445Z,185
2017-06-24T09:17:23.969Z,185
2017-06-24T09:17:49.511Z,175
2017-06-24T09:18:14.992Z,165
2017-06-24T09:18:40.506Z,155
2017-06-24T09:19:06.140Z,145
2017-06-24T09:19:31.532Z,140
2017-06-24T09:19:57.064Z,140
2017-06-24T09:20:22.784Z,155
2017-06-24T09:20:48.584Z,160
2017-06-24T09:21:14.206Z,155
2017-06-24T09:21:39.724Z,145
2017-06-24T09:22:05.330Z,140
2017-06-24T09:22:30.896Z,145
2017-06-24T09:22:56.476Z,155
2017-06-24T09:23:22.202Z,145
2017-06-24T09:23:47.709Z,145
2017-06-24T09:24:13.297Z,140
2017-06-24T09:24:38.811Z,130
2017-06-24T09:25:04.303Z,135
2017-06-24T09:25:29.783Z,145
2017-06-24T09:25:55.273Z,130
2017-06-24T09:26:20.813Z,130
2017-06-24T09:26:46.405Z,145
2017-06-24T09:27:11.924Z,160
2017-06-24T09:27:37.435Z,150
2017-06-24T09:28:03.013Z,135
2017-06-24T09:28:28.538Z,135
2017-06-24T09:28:54.016Z,140
2017-06-24T09:29:19.501Z,135
2017-06-24T09:29:44.984Z,140
2017-06-24T09:30:10.453Z,145
2017-06-24T09:30:35.928Z,145
2017-06-24T09:31:01.408Z,145
2017-06-24T09:31:26.888Z,150
2017-06-24T09:31:52.489Z,155
2017-06-24T09:32:18.045Z,155
2017-06-24T09:32:43.655Z,150
2017-06-24T09:33:09.136Z,155
2017-06-24T09:33:34.628Z,155
2017-06-24T09:34:00.113Z,145
2017-06-24T09:34:25.610Z,140
2017-06-24T09:34:51.104Z,145
2017-06-24T09:35:16.583Z,165
2017-06-24T09:35:42.050Z,180
2017-06-24T09:36:07.570Z,185
2017-06-24T09:36:33.058Z,190
2017-06-24T09:36:58.535Z,190
2017-06-24T09:37:24.032Z,185
2017-06-24T09:37:49.512Z,185
2017-06-24T09:38:14.995Z,195
2017-06-24T09:38:40.481Z,200
2017-06-24T09:39:05.975Z,195
2017-06-24T09:39:31.466Z,185
2017-06-24T09:39:56.952Z,195
2017-06-24T09:40:22.420Z,210
2017-06-24T09:40:47.873Z,225
2017-06-24T09:41:13.360Z,235
2017-06-24T09:41:38.843Z,250
2017-06-24T09:42:04.317Z,265
2017-06-24T09:42:29.773Z,310
2017-06-24T09:42:55.245Z,315
2017-06-24T09:43:20.726Z,275
2017-06-24T09:43:46.170Z,245
2017-06-24T09:44:11.680Z,230
2017-06-24T09:44:37.164Z,255
2017-06-24T09:45:02.635Z,280
2017-06-24T09:45:28.105Z,280
2017-06-24T09:45:53.593Z,255
2017-06-24T09:46:19.068Z,250
2017-06-24T09:46:44.543Z,240
2017-06-24T09:47:10.024Z,225
2017-06-24T09:47:35.512Z,195
2017-06-24T09:48:00.990Z,175
2017-06-24T09:48:26.487Z,185
2017-06-24T09:48:51.997Z,205
2017-06-24T09:49:17.460Z,205
2017-06-24T09:49:42.978Z,200
2017-06-24T09:50:08.462Z,190
2017-06-24T09:50:33.939Z,190
2017-06-24T09:50:59.400Z,175
2017-06-24T09:51:24.887Z,170
2017-06-24T09:51:50.347Z,190
2017-06-24T09:52:15.840Z,195
2017-06-24T09:52:41.312Z,195
2017-06-24T09:53:06.797Z,200
2017-06-24T09:53:32.288Z,225
2017-06-24T09:53:57.769Z,265
2017-06-24T09:54:23.243Z,270
2017-06-24T09:54:48.699Z,240
2017-06-24T09:55:14.197Z,235
2017-06-24T09:55:39.640Z,230
2017-06-24T09:56:05.113Z,205
2017-06-24T09:56:30.588Z,180
2017-06-24T09:56:56.078Z,165
2017-06-24T09:57:21.551Z,180